createdAt,value
2022-09-03T00:02:08.084Z,97667.68
2022-09-03T00:05:14.930Z,97669.13
2022-09-03T00:07:47.377Z,97666.04
2022-09-03T00:10:22.953Z,97668.34
2022-09-03T00:12:54.573Z,97671.30
2022-09-03T00:15:24.506Z,97672.77
2022-09-03T00:18:00.923Z,97676.87
2022-09-03T00:20:34.494Z,97674.75
2022-09-03T00:23:07.148Z,97674.56
2022-09-03T00:25:50.895Z,97671.52
2022-09-03T00:28:35.873Z,97666.55
2022-09-03T00:31:30.389Z,97667.41
2022-09-03T00:34:04.850Z,97668.29
2022-09-03T00:36:44.046Z,97665.40
2022-09-03T00:39:24.053Z,97669.66
2022-09-03T00:42:21.147Z,97670.73
2022-09-03T00:45:13.828Z,97672.63
2022-09-03T00:47:57.048Z,97675.17
2022-09-03T00:51:00.463Z,97667.74
2022-09-03T00:53:40.980Z,97664.98
2022-09-03T00:56:21.332Z,97659.79
2022-09-03T00:59:01.756Z,97660.61
2022-09-03T01:01:33.910Z,97665.38
2022-09-03T01:04:21.787Z,97668.28
2022-09-03T01:07:04.855Z,97669.71
2022-09-03T01:10:13.268Z,97670.91
2022-09-03T01:12:59.984Z,97671.13
2022-09-03T01:15:45.822Z,97672.98
2022-09-03T01:18:13.813Z,97672.91
2022-09-03T01:20:59.210Z,97672.52
2022-09-03T01:23:30.039Z,97676.73
2022-09-03T01:26:11.534Z,97677.58
2022-09-03T01:28:40.574Z,97675.89
2022-09-03T01:31:36.443Z,97677.02
2022-09-03T01:34:32.244Z,97681.70
2022-09-03T01:37:33.606Z,97682.02
2022-09-03T01:40:23.907Z,97680.80
2022-09-03T01:43:05.362Z,97682.23
2022-09-03T01:45:51.130Z,97684.45
2022-09-03T01:48:38.027Z,97684.44
2022-09-03T01:51:28.136Z,97678.48
2022-09-03T01:54:24.899Z,97676.66
2022-09-03T01:57:46.288Z,97683.39
2022-09-03T02:00:22.886Z,97688.02
2022-09-03T02:02:55.671Z,97689.20
2022-09-03T02:05:26.450Z,97694.48
2022-09-03T02:08:04.584Z,97695.73
2022-09-03T02:10:40.942Z,97693.98
2022-09-03T02:13:24.666Z,97692.75
2022-09-03T02:15:56.490Z,97695.27
2022-09-03T02:18:29.095Z,97697.66
2022-09-03T02:21:00.885Z,97701.50
2022-09-03T02:23:30.037Z,97706.57
2022-09-03T02:26:02.077Z,97704.43
2022-09-03T02:28:32.552Z,97699.74
2022-09-03T02:31:00.730Z,97705.27
2022-09-03T02:33:30.467Z,97705.63
2022-09-03T02:35:58.437Z,97704.68
2022-09-03T02:38:27.246Z,97703.09
2022-09-03T02:40:55.990Z,97701.67
2022-09-03T02:43:41.176Z,97703.10
2022-09-03T02:46:16.501Z,97703.88
2022-09-03T02:48:44.545Z,97701.38
2022-09-03T02:51:14.267Z,97703.10
2022-09-03T02:53:43.206Z,97704.88
2022-09-03T02:56:11.771Z,97708.64
2022-09-03T02:58:39.838Z,97715.55
2022-09-03T03:01:07.912Z,97715.20
2022-09-03T03:03:35.938Z,97713.20
2022-09-03T03:06:06.001Z,97712.38
2022-09-03T03:08:35.463Z,97707.77
2022-09-03T03:11:03.513Z,97712.11
2022-09-03T03:13:32.337Z,97712.08
2022-09-03T03:16:08.619Z,97714.62
2022-09-03T03:18:36.978Z,97713.45
2022-09-03T03:21:10.583Z,97713.45
2022-09-03T03:23:39.883Z,97712.58
2022-09-03T03:26:11.127Z,97713.09
2022-09-03T03:28:39.229Z,97712.54
2022-09-03T03:31:09.562Z,97716.64
2022-09-03T03:33:38.583Z,97711.70
2022-09-03T03:36:08.272Z,97715.01
2022-09-03T03:38:37.197Z,97711.86
2022-09-03T03:41:19.614Z,97712.30
2022-09-03T03:43:48.479Z,97715.45
2022-09-03T03:46:16.625Z,97714.42
2022-09-03T03:48:48.340Z,97715.08
2022-09-03T03:51:16.551Z,97715.40
2022-09-03T03:53:45.659Z,97712.48
2022-09-03T03:56:17.004Z,97713.19
2022-09-03T03:58:45.338Z,97714.08
2022-09-03T04:01:16.184Z,97714.86
2022-09-03T04:03:44.748Z,97715.77
2022-09-03T04:06:15.606Z,97710.11
2022-09-03T04:08:45.090Z,97706.94
2022-09-03T04:11:20.726Z,97709.34
2022-09-03T04:13:49.845Z,97714.23
2022-09-03T04:16:28.854Z,97713.54
2022-09-03T04:18:57.990Z,97713.13
2022-09-03T04:21:28.862Z,97715.05
2022-09-03T04:23:58.293Z,97720.77
2022-09-03T04:26:32.546Z,97722.84
2022-09-03T04:29:04.848Z,97726.59
2022-09-03T04:31:34.422Z,97726.97
2022-09-03T04:34:03.143Z,97727.40
2022-09-03T04:36:32.295Z,97730.07
2022-09-03T04:39:01.903Z,97732.34
2022-09-03T04:41:31.857Z,97733.86
2022-09-03T04:44:00.425Z,97731.14
2022-09-03T04:46:33.753Z,97731.63
2022-09-03T04:49:05.209Z,97727.02
2022-09-03T04:51:33.366Z,97728.95
2022-09-03T04:54:02.610Z,97731.64
2022-09-03T04:56:35.564Z,97730.40
2022-09-03T04:59:09.737Z,97737.06
2022-09-03T05:01:39.787Z,97736.45
2022-09-03T05:04:08.821Z,97740.30
2022-09-03T05:06:37.500Z,97739.56
2022-09-03T05:09:06.811Z,97741.71
2022-09-03T05:11:34.927Z,97741.94
2022-09-03T05:14:05.948Z,97740.34
2022-09-03T05:16:34.043Z,97735.29
2022-09-03T05:19:06.084Z,97732.11
2022-09-03T05:21:37.950Z,97735.74
2022-09-03T05:24:06.074Z,97734.64
2022-09-03T05:26:38.357Z,97741.27
2022-09-03T05:29:07.877Z,97748.21
2022-09-03T05:31:39.829Z,97751.69
2022-09-03T05:34:10.164Z,97757.16
2022-09-03T05:36:44.287Z,97759.23
2022-09-03T05:39:12.306Z,97756.24
2022-09-03T05:41:40.606Z,97753.95
2022-09-03T05:44:08.581Z,97757.64
2022-09-03T05:46:38.483Z,97766.48
2022-09-03T05:49:07.943Z,97767.49
2022-09-03T05:51:37.263Z,97767.09
2022-09-03T05:54:05.867Z,97765.88
2022-09-03T05:56:35.944Z,97762.48
2022-09-03T05:59:09.383Z,97757.73
2022-09-03T06:01:52.259Z,97764.59
2022-09-03T06:04:22.078Z,97770.16
2022-09-03T06:06:50.450Z,97774.98
2022-09-03T06:09:23.720Z,97774.83
2022-09-03T06:11:54.163Z,97774.98
2022-09-03T06:14:22.353Z,97775.14
2022-09-03T06:16:52.781Z,97777.88
2022-09-03T06:19:21.203Z,97781.93
2022-09-03T06:21:49.607Z,97780.02
2022-09-03T06:24:27.841Z,97783.80
2022-09-03T06:26:57.431Z,97787.10
2022-09-03T06:29:25.953Z,97788.25
2022-09-03T06:31:55.405Z,97792.07
2022-09-03T06:34:27.466Z,97798.28
2022-09-03T06:36:55.760Z,97798.66
2022-09-03T06:39:24.810Z,97803.19
2022-09-03T06:41:53.701Z,97801.10
2022-09-03T06:44:27.098Z,97800.05
2022-09-03T06:46:55.069Z,97805.11
2022-09-03T06:49:26.383Z,97802.21
2022-09-03T06:51:54.730Z,97795.48
2022-09-03T06:54:23.248Z,97791.29
2022-09-03T06:56:51.249Z,97783.71
2022-09-03T06:59:19.451Z,97785.98
2022-09-03T07:01:47.901Z,97788.89
2022-09-03T07:04:19.129Z,97790.29
2022-09-03T07:06:47.710Z,97791.23
2022-09-03T07:09:18.382Z,97798.90
2022-09-03T07:11:48.377Z,97796.48
2022-09-03T07:14:19.253Z,97797.27
2022-09-03T07:16:49.653Z,97795.20
2022-09-03T07:19:18.532Z,97792.39
2022-09-03T07:21:51.016Z,97792.49
2022-09-03T07:24:22.723Z,97796.63
2022-09-03T07:26:51.003Z,97796.36
2022-09-03T07:29:22.061Z,97799.92
2022-09-03T07:31:52.325Z,97800.98
2022-09-03T07:34:25.285Z,97804.70
2022-09-03T07:36:54.574Z,97806.20
2022-09-03T07:39:24.446Z,97802.86
2022-09-03T07:41:52.754Z,97802.56
2022-09-03T07:44:22.179Z,97802.66
2022-09-03T07:46:51.646Z,97802.50
2022-09-03T07:49:22.140Z,97809.33
2022-09-03T07:51:54.309Z,97807.12
2022-09-03T07:54:26.326Z,97803.27
2022-09-03T07:56:55.025Z,97805.86
2022-09-03T07:59:24.683Z,97807.33
2022-09-03T08:01:53.453Z,97807.30
2022-09-03T08:04:25.405Z,97807.23
2022-09-03T08:06:55.969Z,97806.04
2022-09-03T08:09:24.662Z,97799.98
2022-09-03T08:11:52.811Z,97796.17
2022-09-03T08:14:20.987Z,97799.36
2022-09-03T08:16:49.155Z,97800.59
2022-09-03T08:19:21.387Z,97801.87
2022-09-03T08:21:49.499Z,97799.66
2022-09-03T08:24:21.222Z,97794.23
2022-09-03T08:26:52.216Z,97794.37
2022-09-03T08:29:21.600Z,97785.29
2022-09-03T08:31:49.834Z,97783.82
2022-09-03T08:34:18.376Z,97786.75
2022-09-03T08:36:47.426Z,97786.16
2022-09-03T08:39:16.841Z,97790.14
2022-09-03T08:41:51.185Z,97791.69
2022-09-03T08:44:37.751Z,97790.63
2022-09-03T08:47:18.000Z,97786.80
2022-09-03T08:49:58.348Z,97786.09
2022-09-03T08:52:39.002Z,97784.50
2022-09-03T08:55:26.766Z,97788.73
2022-09-03T08:58:03.710Z,97797.27
2022-09-03T09:01:02.908Z,97798.35
2022-09-03T09:04:00.553Z,97802.45
2022-09-03T09:06:47.492Z,97799.78
2022-09-03T09:09:34.113Z,97807.48
2022-09-03T09:12:41.169Z,97808.94
2022-09-03T09:15:19.708Z,97815.82
2022-09-03T09:17:47.657Z,97822.54
2022-09-03T09:20:32.921Z,97825.46
2022-09-03T09:23:08.569Z,97828.33
2022-09-03T09:25:49.102Z,97823.64
2022-09-03T09:28:25.036Z,97828.26
2022-09-03T09:30:58.613Z,97832.75
2022-09-03T09:33:26.975Z,97839.96
2022-09-03T09:36:00.270Z,97841.14
2022-09-03T09:38:32.092Z,97845.05
2022-09-03T09:41:15.680Z,97846.13
2022-09-03T09:43:44.581Z,97846.02
2022-09-03T09:46:16.354Z,97850.68
2022-09-03T09:48:52.351Z,97849.12
2022-09-03T09:51:23.017Z,97846.58
2022-09-03T09:54:04.565Z,97843.83
2022-09-03T09:56:33.249Z,97838.48
2022-09-03T09:59:10.306Z,97842.23
2022-09-03T10:01:41.487Z,97836.52
2022-09-03T10:04:14.874Z,97838.80
2022-09-03T10:06:59.471Z,97838.48
2022-09-03T10:09:32.729Z,97831.47
2022-09-03T10:12:14.830Z,97828.08
2022-09-03T10:15:21.008Z,97821.60
2022-09-03T10:18:08.134Z,97819.64
2022-09-03T10:20:44.434Z,97813.66
2022-09-03T10:23:30.978Z,97806.15
2022-09-03T10:26:07.935Z,97815.21
2022-09-03T10:28:43.021Z,97813.73
2022-09-03T10:31:22.423Z,97806.07
2022-09-03T10:34:03.795Z,97802.34
2022-09-03T10:37:00.697Z,97798.38
2022-09-03T10:40:11.827Z,97795.80
2022-09-03T10:42:55.028Z,97786.38
2022-09-03T10:45:29.291Z,97779.46
2022-09-03T10:48:24.850Z,97773.64
2022-09-03T10:51:09.964Z,97772.45
2022-09-03T10:54:03.368Z,97768.88
2022-09-03T10:56:57.897Z,97761.88
2022-09-03T10:59:36.461Z,97761.58
2022-09-03T11:02:41.477Z,97760.27
2022-09-03T11:05:27.143Z,97753.96
2022-09-03T11:08:07.015Z,97752.39
2022-09-03T11:10:44.704Z,97753.86
2022-09-03T11:13:16.059Z,97749.20
2022-09-03T11:15:55.803Z,97748.02
2022-09-03T11:18:48.472Z,97741.04
2022-09-03T11:21:22.051Z,97737.70
2022-09-03T11:24:07.926Z,97738.66
2022-09-03T11:26:38.011Z,97738.63
2022-09-03T11:29:26.257Z,97739.83
2022-09-03T11:32:16.171Z,97741.95
2022-09-03T11:34:49.664Z,97740.06
2022-09-03T11:37:26.728Z,97737.16
2022-09-03T11:40:05.444Z,97735.91
2022-09-03T11:42:41.449Z,97742.90
2022-09-03T11:45:24.428Z,97741.48
2022-09-03T11:47:54.445Z,97742.52
2022-09-03T11:50:24.760Z,97747.02
2022-09-03T11:52:57.013Z,97754.20
2022-09-03T11:55:37.508Z,97750.35
2022-09-03T11:58:27.824Z,97752.24
2022-09-03T12:00:57.269Z,97749.85
2022-09-03T12:03:30.220Z,97750.86
2022-09-03T12:06:03.369Z,97759.64
2022-09-03T12:09:01.324Z,97754.81
2022-09-03T12:11:37.604Z,97756.02
2022-09-03T12:14:33.512Z,97757.58
2022-09-03T12:17:31.098Z,97757.90
2022-09-03T12:19:59.521Z,97761.54
2022-09-03T12:22:31.427Z,97758.57
2022-09-03T12:25:12.349Z,97751.43
2022-09-03T12:27:45.046Z,97747.64
2022-09-03T12:30:21.584Z,97751.63
2022-09-03T12:32:51.425Z,97751.05
2022-09-03T12:38:18.604Z,97746.42
2022-09-03T12:43:39.577Z,97735.92
2022-09-03T12:46:16.471Z,97730.92
2022-09-03T12:52:06.597Z,97718.20
2022-09-03T12:55:01.907Z,97721.80
2022-09-03T12:58:02.648Z,97717.12
2022-09-03T13:00:36.632Z,97719.63
2022-09-03T13:03:19.674Z,97722.89
2022-09-03T13:05:57.369Z,97724.70
2022-09-03T13:08:32.189Z,97725.13
2022-09-03T13:11:06.137Z,97726.84
2022-09-03T13:13:39.499Z,97732.27
2022-09-03T13:16:31.408Z,97733.71
2022-09-03T13:19:24.687Z,97740.74
2022-09-03T13:22:11.686Z,97738.44
2022-09-03T13:24:45.095Z,97734.81
2022-09-03T13:27:31.649Z,97734.60
2022-09-03T13:30:35.245Z,97733.88
2022-09-03T13:33:33.710Z,97739.26
2022-09-03T13:36:16.805Z,97741.21
2022-09-03T13:39:06.789Z,97740.16
2022-09-03T13:42:02.474Z,97737.21
2022-09-03T13:44:38.144Z,97741.36
2022-09-03T13:47:13.086Z,97743.02
2022-09-03T13:50:22.427Z,97744.09
2022-09-03T13:53:00.493Z,97744.74
2022-09-03T13:55:47.534Z,97745.17
2022-09-03T13:58:36.399Z,97744.66
2022-09-03T14:01:14.268Z,97757.52
2022-09-03T14:03:56.220Z,97755.92
2022-09-03T14:06:43.355Z,97760.77
2022-09-03T14:09:15.307Z,97764.30
2022-09-03T14:12:14.474Z,97758.19
2022-09-03T14:14:51.631Z,97755.81
2022-09-03T14:17:45.763Z,97753.13
2022-09-03T14:20:36.193Z,97749.41
2022-09-03T14:23:19.853Z,97746.91
2022-09-03T14:26:00.993Z,97751.13
2022-09-03T14:28:32.059Z,97753.55
2022-09-03T14:31:36.802Z,97753.61
2022-09-03T14:34:23.723Z,97753.25
2022-09-03T14:37:30.148Z,97754.50
2022-09-03T14:40:10.750Z,97757.11
2022-09-03T14:43:01.094Z,97753.68
2022-09-03T14:45:30.117Z,97756.11
2022-09-03T14:48:01.578Z,97759.13
2022-09-03T14:50:41.278Z,97758.98
2022-09-03T14:53:38.732Z,97760.60
2022-09-03T14:56:12.743Z,97763.82
2022-09-03T14:58:41.653Z,97764.20
2022-09-03T15:01:29.713Z,97767.93
2022-09-03T15:04:48.261Z,97767.98
2022-09-03T15:07:35.133Z,97770.58
2022-09-03T15:10:29.517Z,97771.05
2022-09-03T15:13:17.856Z,97770.99
2022-09-03T15:16:00.496Z,97777.16
2022-09-03T15:18:38.343Z,97780.23
2022-09-03T15:21:33.441Z,97778.25
2022-09-03T15:24:17.500Z,97774.78
2022-09-03T15:27:20.930Z,97779.05
2022-09-03T15:30:10.216Z,97776.69
2022-09-03T15:33:22.639Z,97777.20
2022-09-03T15:36:27.618Z,97779.96
2022-09-03T15:39:16.785Z,97786.55
2022-09-03T15:41:51.293Z,97792.00
2022-09-03T15:44:23.811Z,97789.31
2022-09-03T15:46:54.560Z,97790.67
2022-09-03T15:49:46.126Z,97793.85
2022-09-03T15:52:40.649Z,97797.71
2022-09-03T15:55:14.378Z,97793.38
2022-09-03T15:57:52.415Z,97797.31
2022-09-03T16:00:23.640Z,97804.23
2022-09-03T16:03:11.319Z,97808.77
2022-09-03T16:05:47.088Z,97805.75
2022-09-03T16:08:34.272Z,97812.98
2022-09-03T16:11:13.030Z,97813.34
2022-09-03T16:13:49.782Z,97819.09
2022-09-03T16:16:26.650Z,97820.88
2022-09-03T16:19:06.128Z,97818.16
2022-09-03T16:22:05.781Z,97821.73
2022-09-03T16:24:52.352Z,97826.11
2022-09-03T16:28:10.232Z,97825.29
2022-09-03T16:30:39.907Z,97826.30
2022-09-03T16:33:11.355Z,97830.25
2022-09-03T16:36:16.472Z,97826.13
2022-09-03T16:38:56.764Z,97825.29
2022-09-03T16:41:35.537Z,97824.08
2022-09-03T16:44:50.827Z,97826.13
2022-09-03T16:47:51.009Z,97824.70
2022-09-03T16:51:10.812Z,97829.79
2022-09-03T16:54:13.821Z,97832.20
2022-09-03T16:57:07.502Z,97845.86
2022-09-03T17:00:00.565Z,97852.98
2022-09-03T17:02:49.028Z,97859.27
2022-09-03T17:05:41.187Z,97860.36
2022-09-03T17:08:22.433Z,97860.14
2022-09-03T17:11:36.377Z,97859.85
2022-09-03T17:14:23.209Z,97856.41
2022-09-03T17:17:10.272Z,97856.71
2022-09-03T17:20:06.337Z,97858.30
2022-09-03T17:22:59.699Z,97865.28
2022-09-03T17:25:36.270Z,97872.26
2022-09-03T17:28:25.317Z,97869.34
2022-09-03T17:30:59.535Z,97870.54
2022-09-03T17:33:46.378Z,97872.05
2022-09-03T17:36:31.486Z,97878.31
2022-09-03T17:39:51.351Z,97880.26
2022-09-03T17:42:49.381Z,97886.60
2022-09-03T17:45:27.986Z,97890.03
2022-09-03T17:48:32.831Z,97894.61
2022-09-03T17:51:17.828Z,97899.77
2022-09-03T17:53:52.941Z,97904.00
2022-09-03T17:56:30.308Z,97902.47
2022-09-03T17:59:19.697Z,97906.44
2022-09-03T18:02:23.926Z,97909.94
2022-09-03T18:04:58.822Z,97912.00
2022-09-03T18:07:29.881Z,97913.64
2022-09-03T18:10:25.134Z,97913.92
2022-09-03T18:13:12.777Z,97916.39
2022-09-03T18:16:07.281Z,97919.30
2022-09-03T18:18:43.766Z,97921.52
2022-09-03T18:21:36.229Z,97923.87
2022-09-03T18:24:54.456Z,97922.38
2022-09-03T18:28:04.621Z,97921.20
2022-09-03T18:30:52.816Z,97920.20
2022-09-03T18:33:43.338Z,97920.17
2022-09-03T18:36:32.368Z,97916.42
2022-09-03T18:39:54.903Z,97914.80
2022-09-03T18:43:09.974Z,97918.98
2022-09-03T18:47:47.475Z,97918.39
2022-09-03T18:49:37.985Z,97923.89
2022-09-03T18:52:27.976Z,97929.64
2022-09-03T18:55:26.924Z,97934.58
2022-09-03T18:58:42.514Z,97932.37
2022-09-03T19:01:55.231Z,97935.93
2022-09-03T19:05:06.849Z,97939.37
2022-09-03T19:08:14.786Z,97943.97
2022-09-03T19:11:10.662Z,97946.02
2022-09-03T19:14:00.053Z,97950.65
2022-09-03T19:17:23.911Z,97950.17
2022-09-03T19:20:13.506Z,97950.80
2022-09-03T19:23:01.308Z,97958.41
2022-09-03T19:25:49.829Z,97963.48
2022-09-03T19:28:50.667Z,97966.02
2022-09-03T19:31:58.654Z,97969.95
2022-09-03T19:35:24.011Z,97972.91
2022-09-03T19:38:48.112Z,97976.45
2022-09-03T19:41:53.614Z,97976.48
2022-09-03T19:45:10.251Z,97975.64
2022-09-03T19:48:43.496Z,97980.36
2022-09-03T19:51:39.568Z,97985.77
2022-09-03T19:54:28.058Z,97986.48
2022-09-03T19:57:16.589Z,97992.09
2022-09-03T20:00:07.932Z,97998.63
2022-09-03T20:03:00.461Z,98000.55
2022-09-03T20:05:47.322Z,98002.91
2022-09-03T20:08:36.042Z,98001.25
2022-09-03T20:11:06.218Z,97992.77
2022-09-03T20:13:59.580Z,97996.43
2022-09-03T20:16:35.414Z,97996.38
2022-09-03T20:19:21.665Z,97995.75
2022-09-03T20:22:12.181Z,97998.03
2022-09-03T20:24:44.384Z,97994.08
2022-09-03T20:27:27.136Z,97992.36
2022-09-03T20:30:03.632Z,98000.20
2022-09-03T20:32:38.000Z,98002.84
2022-09-03T20:35:33.376Z,98005.52
2022-09-03T20:38:04.902Z,98011.21
2022-09-03T20:41:10.590Z,98007.91
2022-09-03T20:44:08.676Z,98016.91
2022-09-03T20:46:53.654Z,98013.83
2022-09-03T20:49:25.510Z,98014.30
2022-09-03T20:52:08.653Z,98016.75
2022-09-03T20:54:42.523Z,98024.70
2022-09-03T20:57:35.986Z,98026.42
2022-09-03T21:00:18.557Z,98027.17
2022-09-03T21:03:20.159Z,98026.87
2022-09-03T21:06:04.041Z,98024.84
2022-09-03T21:08:36.217Z,98028.55
2022-09-03T21:11:43.414Z,98028.76
2022-09-03T21:14:35.803Z,98028.39
2022-09-03T21:17:38.179Z,98030.80
2022-09-03T21:20:46.042Z,98036.13
2022-09-03T21:23:25.764Z,98035.55
2022-09-03T21:26:14.833Z,98031.98
2022-09-03T21:28:54.451Z,98032.52
2022-09-03T21:31:35.161Z,98034.58
2022-09-03T21:34:12.006Z,98036.27
2022-09-03T21:36:43.598Z,98043.66
2022-09-03T21:39:31.307Z,98047.72
2022-09-03T21:42:22.590Z,98052.69
2022-09-03T21:44:57.745Z,98054.21
2022-09-03T21:47:28.529Z,98057.56
2022-09-03T21:50:13.071Z,98056.40
2022-09-03T21:53:00.162Z,98053.76
2022-09-03T21:55:33.570Z,98056.55
2022-09-03T21:58:01.699Z,98053.27
2022-09-03T22:00:32.819Z,98055.31
2022-09-03T22:03:01.351Z,98054.86
2022-09-03T22:05:45.288Z,98049.92
2022-09-03T22:08:35.021Z,98047.79
2022-09-03T22:11:03.124Z,98062.90
2022-09-03T22:13:49.373Z,98062.64
2022-09-03T22:16:31.631Z,98061.65
2022-09-03T22:18:59.975Z,98067.77
2022-09-03T22:21:53.480Z,98069.24
2022-09-03T22:24:25.379Z,98069.23
2022-09-03T22:27:35.673Z,98070.52
2022-09-03T22:30:04.035Z,98072.41
2022-09-03T22:33:00.245Z,98071.41
2022-09-03T22:35:43.084Z,98076.77
2022-09-03T22:38:11.079Z,98077.13
2022-09-03T22:40:52.441Z,98079.08
2022-09-03T22:43:33.723Z,98078.88
2022-09-03T22:46:09.177Z,98077.87
2022-09-03T22:48:47.590Z,98078.70
2022-09-03T22:51:21.488Z,98076.77
2022-09-03T22:54:14.685Z,98079.63
2022-09-03T22:56:43.925Z,98079.50
2022-09-03T22:59:29.946Z,98079.87
2022-09-03T23:02:26.602Z,98086.31
2022-09-03T23:05:06.307Z,98085.80
2022-09-03T23:07:57.497Z,98092.92
2022-09-03T23:11:07.747Z,98092.15
2022-09-03T23:13:45.800Z,98089.75
2022-09-03T23:16:30.673Z,98087.41
2022-09-03T23:19:03.584Z,98086.10
2022-09-03T23:21:41.519Z,98088.11
2022-09-03T23:24:24.354Z,98088.67
2022-09-03T23:26:53.774Z,98093.02
2022-09-03T23:29:33.737Z,98095.09
2022-09-03T23:32:05.442Z,98089.33
2022-09-03T23:34:33.884Z,98083.20
2022-09-03T23:37:33.331Z,98084.98
2022-09-03T23:40:33.187Z,98086.38
2022-09-03T23:43:26.296Z,98084.23
2022-09-03T23:46:06.415Z,98082.46
2022-09-03T23:48:43.288Z,98085.25
2022-09-03T23:51:26.321Z,98091.15
2022-09-03T23:54:07.313Z,98088.80
2022-09-03T23:56:57.466Z,98097.44
2022-09-03T23:59:35.085Z,98099.73
